sensor_id;sensor_type;location;lat;lon;timestamp;P1;durP1;ratioP1;P2;durP2;ratioP2
6495;SDS011;3281;47.658;9.166;2024-02-15T00:01:51;13.00;;;5.67;;
6495;SDS011;3281;47.658;9.166;2024-02-15T00:04:17;10.30;;;5.17;;
6495;SDS011;3281;47.658;9.166;2024-02-15T00:06:46;11.17;;;4.97;;
6495;SDS011;3281;47.658;9.166;2024-02-15T00:09:13;14.27;;;4.97;;
6495;SDS011;3281;47.658;9.166;2024-02-15T00:11:40;10.10;;;5.20;;
6495;SDS011;3281;47.658;9.166;2024-02-15T00:14:06;9.73;;;4.80;;
6495;SDS011;3281;47.658;9.166;2024-02-15T00:16:33;11.37;;;5.50;;
6495;SDS011;3281;47.658;9.166;2024-02-15T00:19:00;9.67;;;4.77;;
6495;SDS011;3281;47.658;9.166;2024-02-15T00:21:27;11.20;;;5.23;;
6495;SDS011;3281;47.658;9.166;2024-02-15T00:23:55;9.70;;;4.90;;
6495;SDS011;3281;47.658;9.166;2024-02-15T00:26:24;9.67;;;5.27;;
6495;SDS011;3281;47.658;9.166;2024-02-15T00:28:51;8.63;;;4.80;;
6495;SDS011;3281;47.658;9.166;2024-02-15T00:31:18;8.10;;;4.90;;
6495;SDS011;3281;47.658;9.166;2024-02-15T00:33:44;9.50;;;5.10;;
6495;SDS011;3281;47.658;9.166;2024-02-15T00:36:11;8.17;;;4.90;;
6495;SDS011;3281;47.658;9.166;2024-02-15T00:38:38;9.30;;;4.87;;
6495;SDS011;3281;47.658;9.166;2024-02-15T00:41:06;8.03;;;4.43;;
6495;SDS011;3281;47.658;9.166;2024-02-15T00:43:34;11.57;;;4.60;;
6495;SDS011;3281;47.658;9.166;2024-02-15T00:46:01;7.50;;;5.03;;
6495;SDS011;3281;47.658;9.166;2024-02-15T00:48:28;9.27;;;4.87;;
6495;SDS011;3281;47.658;9.166;2024-02-15T00:50:55;14.43;;;5.23;;
6495;SDS011;3281;47.658;9.166;2024-02-15T00:53:23;12.20;;;4.73;;
6495;SDS011;3281;47.658;9.166;2024-02-15T00:55:49;6.43;;;4.90;;
6495;SDS011;3281;47.658;9.166;2024-02-15T00:58:18;8.90;;;4.60;;
6495;SDS011;3281;47.658;9.166;2024-02-15T01:00:46;10.77;;;4.80;;
6495;SDS011;3281;47.658;9.166;2024-02-15T01:03:13;6.90;;;4.87;;
6495;SDS011;3281;47.658;9.166;2024-02-15T01:05:41;7.60;;;4.63;;
6495;SDS011;3281;47.658;9.166;2024-02-15T01:08:08;7.27;;;4.50;;
6495;SDS011;3281;47.658;9.166;2024-02-15T01:10:35;11.73;;;4.77;;
6495;SDS011;3281;47.658;9.166;2024-02-15T01:13:02;7.80;;;4.23;;
6495;SDS011;3281;47.658;9.166;2024-02-15T01:15:30;12.13;;;4.50;;
6495;SDS011;3281;47.658;9.166;2024-02-15T01:17:57;12.70;;;3.73;;
6495;SDS011;3281;47.658;9.166;2024-02-15T01:20:23;7.43;;;4.23;;
6495;SDS011;3281;47.658;9.166;2024-02-15T01:22:50;6.00;;;3.80;;
6495;SDS011;3281;47.658;9.166;2024-02-15T01:25:17;8.43;;;4.60;;
6495;SDS011;3281;47.658;9.166;2024-02-15T01:27:43;5.83;;;3.63;;
6495;SDS011;3281;47.658;9.166;2024-02-15T01:30:10;7.47;;;4.30;;
6495;SDS011;3281;47.658;9.166;2024-02-15T01:32:39;6.33;;;3.83;;
6495;SDS011;3281;47.658;9.166;2024-02-15T01:35:07;8.70;;;4.30;;
6495;SDS011;3281;47.658;9.166;2024-02-15T01:37:35;6.37;;;4.07;;
6495;SDS011;3281;47.658;9.166;2024-02-15T01:40:01;5.70;;;3.47;;
6495;SDS011;3281;47.658;9.166;2024-02-15T01:42:30;6.23;;;3.70;;
6495;SDS011;3281;47.658;9.166;2024-02-15T01:44:57;10.20;;;3.33;;
6495;SDS011;3281;47.658;9.166;2024-02-15T01:47:23;5.43;;;3.00;;
6495;SDS011;3281;47.658;9.166;2024-02-15T01:49:52;4.83;;;3.23;;
6495;SDS011;3281;47.658;9.166;2024-02-15T01:52:19;5.43;;;3.70;;
6495;SDS011;3281;47.658;9.166;2024-02-15T01:54:46;4.30;;;3.33;;
6495;SDS011;3281;47.658;9.166;2024-02-15T01:57:14;3.67;;;3.00;;
6495;SDS011;3281;47.658;9.166;2024-02-15T01:59:42;6.07;;;3.00;;
6495;SDS011;3281;47.658;9.166;2024-02-15T02:02:09;5.27;;;3.27;;
6495;SDS011;3281;47.658;9.166;2024-02-15T02:04:38;5.17;;;3.00;;
6495;SDS011;3281;47.658;9.166;2024-02-15T02:07:08;7.37;;;3.20;;
6495;SDS011;3281;47.658;9.166;2024-02-15T02:09:36;6.00;;;3.40;;
6495;SDS011;3281;47.658;9.166;2024-02-15T02:12:02;4.27;;;3.00;;
6495;SDS011;3281;47.658;9.166;2024-02-15T02:14:30;7.80;;;3.33;;
6495;SDS011;3281;47.658;9.166;2024-02-15T02:16:58;3.30;;;2.83;;
6495;SDS011;3281;47.658;9.166;2024-02-15T02:19:37;5.60;;;2.90;;
6495;SDS011;3281;47.658;9.166;2024-02-15T02:22:03;4.27;;;2.73;;
6495;SDS011;3281;47.658;9.166;2024-02-15T02:24:33;4.80;;;2.80;;
6495;SDS011;3281;47.658;9.166;2024-02-15T02:27:04;4.97;;;2.97;;
6495;SDS011;3281;47.658;9.166;2024-02-15T02:29:33;6.70;;;3.53;;
6495;SDS011;3281;47.658;9.166;2024-02-15T02:32:00;9.53;;;2.70;;
6495;SDS011;3281;47.658;9.166;2024-02-15T02:34:27;5.07;;;2.80;;
6495;SDS011;3281;47.658;9.166;2024-02-15T02:36:53;4.80;;;3.00;;
6495;SDS011;3281;47.658;9.166;2024-02-15T02:39:20;3.90;;;2.60;;
6495;SDS011;3281;47.658;9.166;2024-02-15T02:41:48;5.00;;;2.90;;
6495;SDS011;3281;47.658;9.166;2024-02-15T02:44:16;4.30;;;2.40;;
6495;SDS011;3281;47.658;9.166;2024-02-15T02:46:42;4.90;;;3.00;;
6495;SDS011;3281;47.658;9.166;2024-02-15T02:49:09;6.40;;;2.93;;
6495;SDS011;3281;47.658;9.166;2024-02-15T02:51:36;4.30;;;2.90;;
6495;SDS011;3281;47.658;9.166;2024-02-15T02:54:03;5.60;;;3.03;;
6495;SDS011;3281;47.658;9.166;2024-02-15T02:56:31;5.27;;;2.90;;
6495;SDS011;3281;47.658;9.166;2024-02-15T02:58:58;4.90;;;3.30;;
6495;SDS011;3281;47.658;9.166;2024-02-15T03:01:26;4.63;;;2.90;;
6495;SDS011;3281;47.658;9.166;2024-02-15T03:03:53;5.27;;;2.90;;
6495;SDS011;3281;47.658;9.166;2024-02-15T03:06:21;4.80;;;2.90;;
6495;SDS011;3281;47.658;9.166;2024-02-15T03:08:49;4.20;;;2.60;;
6495;SDS011;3281;47.658;9.166;2024-02-15T03:11:19;5.87;;;2.47;;
6495;SDS011;3281;47.658;9.166;2024-02-15T03:13:46;5.83;;;2.80;;
6495;SDS011;3281;47.658;9.166;2024-02-15T03:16:13;4.80;;;2.30;;
6495;SDS011;3281;47.658;9.166;2024-02-15T03:18:43;7.10;;;3.03;;
6495;SDS011;3281;47.658;9.166;2024-02-15T03:21:08;5.47;;;2.87;;
6495;SDS011;3281;47.658;9.166;2024-02-15T03:23:35;5.23;;;3.13;;
6495;SDS011;3281;47.658;9.166;2024-02-15T03:26:02;3.77;;;2.33;;
6495;SDS011;3281;47.658;9.166;2024-02-15T03:28:30;6.73;;;3.00;;
6495;SDS011;3281;47.658;9.166;2024-02-15T03:30:57;4.67;;;2.90;;
6495;SDS011;3281;47.658;9.166;2024-02-15T03:33:25;6.70;;;2.77;;
6495;SDS011;3281;47.658;9.166;2024-02-15T03:35:59;3.17;;;2.63;;
6495;SDS011;3281;47.658;9.166;2024-02-15T03:38:25;9.00;;;3.10;;
6495;SDS011;3281;47.658;9.166;2024-02-15T03:40:54;6.57;;;2.83;;
6495;SDS011;3281;47.658;9.166;2024-02-15T03:43:20;4.60;;;3.00;;
6495;SDS011;3281;47.658;9.166;2024-02-15T03:45:48;8.60;;;4.67;;
6495;SDS011;3281;47.658;9.166;2024-02-15T03:48:15;3.40;;;2.83;;
6495;SDS011;3281;47.658;9.166;2024-02-15T03:50:43;5.33;;;2.73;;
6495;SDS011;3281;47.658;9.166;2024-02-15T03:53:11;3.87;;;3.00;;
6495;SDS011;3281;47.658;9.166;2024-02-15T03:55:38;4.37;;;2.77;;
6495;SDS011;3281;47.658;9.166;2024-02-15T03:58:06;4.63;;;2.93;;
6495;SDS011;3281;47.658;9.166;2024-02-15T04:00:34;4.10;;;2.70;;
6495;SDS011;3281;47.658;9.166;2024-02-15T04:03:00;3.93;;;2.80;;
6495;SDS011;3281;47.658;9.166;2024-02-15T04:05:27;4.77;;;2.87;;
6495;SDS011;3281;47.658;9.166;2024-02-15T04:07:54;3.03;;;2.57;;
6495;SDS011;3281;47.658;9.166;2024-02-15T04:10:22;4.93;;;3.03;;
6495;SDS011;3281;47.658;9.166;2024-02-15T04:12:49;4.33;;;3.00;;
6495;SDS011;3281;47.658;9.166;2024-02-15T04:15:16;6.50;;;3.00;;
6495;SDS011;3281;47.658;9.166;2024-02-15T04:17:43;5.67;;;3.40;;
6495;SDS011;3281;47.658;9.166;2024-02-15T04:20:10;5.93;;;2.57;;
6495;SDS011;3281;47.658;9.166;2024-02-15T04:22:39;6.00;;;3.03;;
6495;SDS011;3281;47.658;9.166;2024-02-15T04:25:08;5.83;;;3.33;;
6495;SDS011;3281;47.658;9.166;2024-02-15T04:27:37;7.80;;;3.10;;
6495;SDS011;3281;47.658;9.166;2024-02-15T04:30:03;5.27;;;3.20;;
6495;SDS011;3281;47.658;9.166;2024-02-15T04:32:32;4.43;;;2.80;;
6495;SDS011;3281;47.658;9.166;2024-02-15T04:34:59;5.20;;;3.47;;
6495;SDS011;3281;47.658;9.166;2024-02-15T04:37:27;4.33;;;3.23;;
6495;SDS011;3281;47.658;9.166;2024-02-15T04:39:56;7.00;;;3.50;;
6495;SDS011;3281;47.658;9.166;2024-02-15T04:42:24;8.77;;;3.73;;
6495;SDS011;3281;47.658;9.166;2024-02-15T04:44:53;6.80;;;3.77;;
6495;SDS011;3281;47.658;9.166;2024-02-15T04:47:19;6.43;;;3.53;;
6495;SDS011;3281;47.658;9.166;2024-02-15T04:49:46;6.20;;;3.70;;
6495;SDS011;3281;47.658;9.166;2024-02-15T04:52:13;5.40;;;3.50;;
6495;SDS011;3281;47.658;9.166;2024-02-15T04:54:40;7.17;;;3.33;;
6495;SDS011;3281;47.658;9.166;2024-02-15T04:57:06;8.20;;;2.93;;
6495;SDS011;3281;47.658;9.166;2024-02-15T04:59:33;4.00;;;2.83;;
6495;SDS011;3281;47.658;9.166;2024-02-15T05:02:01;5.73;;;3.00;;
6495;SDS011;3281;47.658;9.166;2024-02-15T05:04:28;6.80;;;3.60;;
6495;SDS011;3281;47.658;9.166;2024-02-15T05:06:55;5.13;;;3.33;;
6495;SDS011;3281;47.658;9.166;2024-02-15T05:09:21;15.53;;;5.93;;
6495;SDS011;3281;47.658;9.166;2024-02-15T05:11:48;8.30;;;4.40;;
6495;SDS011;3281;47.658;9.166;2024-02-15T05:14:15;6.47;;;4.00;;
6495;SDS011;3281;47.658;9.166;2024-02-15T05:16:44;5.80;;;3.53;;
6495;SDS011;3281;47.658;9.166;2024-02-15T05:19:14;4.97;;;3.43;;
6495;SDS011;3281;47.658;9.166;2024-02-15T05:21:41;8.20;;;3.53;;
6495;SDS011;3281;47.658;9.166;2024-02-15T05:24:10;9.83;;;3.80;;
6495;SDS011;3281;47.658;9.166;2024-02-15T05:26:36;6.03;;;4.07;;
6495;SDS011;3281;47.658;9.166;2024-02-15T05:29:03;7.00;;;3.77;;
6495;SDS011;3281;47.658;9.166;2024-02-15T05:31:31;8.93;;;4.03;;
6495;SDS011;3281;47.658;9.166;2024-02-15T05:33:59;8.70;;;3.97;;
6495;SDS011;3281;47.658;9.166;2024-02-15T05:36:27;6.40;;;4.17;;
6495;SDS011;3281;47.658;9.166;2024-02-15T05:38:55;9.37;;;4.70;;
6495;SDS011;3281;47.658;9.166;2024-02-15T05:41:22;8.80;;;4.27;;
6495;SDS011;3281;47.658;9.166;2024-02-15T05:43:49;6.10;;;3.83;;
6495;SDS011;3281;47.658;9.166;2024-02-15T05:46:18;7.30;;;4.10;;
6495;SDS011;3281;47.658;9.166;2024-02-15T05:48:46;6.17;;;3.90;;
6495;SDS011;3281;47.658;9.166;2024-02-15T05:51:14;6.53;;;3.83;;
6495;SDS011;3281;47.658;9.166;2024-02-15T05:53:43;8.03;;;3.80;;
6495;SDS011;3281;47.658;9.166;2024-02-15T05:56:10;9.30;;;4.63;;
6495;SDS011;3281;47.658;9.166;2024-02-15T05:58:37;8.20;;;5.20;;
6495;SDS011;3281;47.658;9.166;2024-02-15T06:01:04;9.53;;;5.43;;
6495;SDS011;3281;47.658;9.166;2024-02-15T06:03:33;12.33;;;5.67;;
6495;SDS011;3281;47.658;9.166;2024-02-15T06:06:03;8.70;;;4.80;;
6495;SDS011;3281;47.658;9.166;2024-02-15T06:08:31;11.30;;;5.07;;
6495;SDS011;3281;47.658;9.166;2024-02-15T06:11:00;9.77;;;4.70;;
6495;SDS011;3281;47.658;9.166;2024-02-15T06:13:27;12.20;;;5.50;;
6495;SDS011;3281;47.658;9.166;2024-02-15T06:15:54;9.50;;;5.17;;
6495;SDS011;3281;47.658;9.166;2024-02-15T06:18:21;11.70;;;5.00;;
6495;SDS011;3281;47.658;9.166;2024-02-15T06:20:49;9.60;;;5.30;;
6495;SDS011;3281;47.658;9.166;2024-02-15T06:23:16;7.70;;;5.00;;
6495;SDS011;3281;47.658;9.166;2024-02-15T06:25:43;13.47;;;4.87;;
6495;SDS011;3281;47.658;9.166;2024-02-15T06:28:11;8.87;;;5.20;;
6495;SDS011;3281;47.658;9.166;2024-02-15T06:31:05;10.00;;;4.70;;
6495;SDS011;3281;47.658;9.166;2024-02-15T06:33:49;14.83;;;5.50;;
6495;SDS011;3281;47.658;9.166;2024-02-15T06:36:33;9.13;;;5.70;;
6495;SDS011;3281;47.658;9.166;2024-02-15T06:39:17;12.57;;;5.13;;
6495;SDS011;3281;47.658;9.166;2024-02-15T06:42:01;8.03;;;5.10;;
6495;SDS011;3281;47.658;9.166;2024-02-15T06:44:30;8.17;;;4.70;;
6495;SDS011;3281;47.658;9.166;2024-02-15T06:46:56;12.10;;;5.37;;
6495;SDS011;3281;47.658;9.166;2024-02-15T06:49:23;10.77;;;5.37;;
6495;SDS011;3281;47.658;9.166;2024-02-15T06:51:50;8.20;;;5.33;;
6495;SDS011;3281;47.658;9.166;2024-02-15T06:54:17;10.57;;;6.07;;
6495;SDS011;3281;47.658;9.166;2024-02-15T06:56:44;12.90;;;5.63;;
6495;SDS011;3281;47.658;9.166;2024-02-15T06:59:11;11.23;;;5.53;;
6495;SDS011;3281;47.658;9.166;2024-02-15T07:01:40;12.77;;;7.10;;
6495;SDS011;3281;47.658;9.166;2024-02-15T07:04:07;12.50;;;6.40;;
6495;SDS011;3281;47.658;9.166;2024-02-15T07:06:35;9.63;;;5.70;;
6495;SDS011;3281;47.658;9.166;2024-02-15T07:09:02;19.63;;;7.23;;
6495;SDS011;3281;47.658;9.166;2024-02-15T07:11:30;12.03;;;6.50;;
6495;SDS011;3281;47.658;9.166;2024-02-15T07:13:57;12.73;;;6.30;;
6495;SDS011;3281;47.658;9.166;2024-02-15T07:16:24;13.90;;;6.50;;
6495;SDS011;3281;47.658;9.166;2024-02-15T07:18:52;14.90;;;7.33;;
6495;SDS011;3281;47.658;9.166;2024-02-15T07:21:19;11.47;;;6.63;;
6495;SDS011;3281;47.658;9.166;2024-02-15T07:23:50;11.07;;;7.10;;
6495;SDS011;3281;47.658;9.166;2024-02-15T07:26:19;14.73;;;6.97;;
6495;SDS011;3281;47.658;9.166;2024-02-15T07:28:49;11.97;;;7.60;;
6495;SDS011;3281;47.658;9.166;2024-02-15T07:31:17;19.40;;;6.70;;
6495;SDS011;3281;47.658;9.166;2024-02-15T07:33:46;21.53;;;7.47;;
6495;SDS011;3281;47.658;9.166;2024-02-15T07:36:15;12.57;;;6.93;;
6495;SDS011;3281;47.658;9.166;2024-02-15T07:38:44;16.27;;;6.23;;
6495;SDS011;3281;47.658;9.166;2024-02-15T07:41:13;10.97;;;6.43;;
6495;SDS011;3281;47.658;9.166;2024-02-15T07:43:40;10.70;;;6.87;;
6495;SDS011;3281;47.658;9.166;2024-02-15T07:46:06;12.33;;;6.13;;
6495;SDS011;3281;47.658;9.166;2024-02-15T07:48:33;14.53;;;7.00;;
6495;SDS011;3281;47.658;9.166;2024-02-15T07:51:00;10.60;;;7.43;;
6495;SDS011;3281;47.658;9.166;2024-02-15T07:53:28;15.23;;;8.20;;
6495;SDS011;3281;47.658;9.166;2024-02-15T07:55:56;14.23;;;7.17;;
6495;SDS011;3281;47.658;9.166;2024-02-15T07:58:23;11.33;;;7.03;;
6495;SDS011;3281;47.658;9.166;2024-02-15T08:00:50;16.73;;;8.20;;
6495;SDS011;3281;47.658;9.166;2024-02-15T08:03:16;13.27;;;7.83;;
6495;SDS011;3281;47.658;9.166;2024-02-15T08:05:43;18.83;;;8.40;;
6495;SDS011;3281;47.658;9.166;2024-02-15T08:08:10;15.43;;;8.50;;
6495;SDS011;3281;47.658;9.166;2024-02-15T08:10:38;16.13;;;8.17;;
6495;SDS011;3281;47.658;9.166;2024-02-15T08:13:04;15.87;;;6.97;;
6495;SDS011;3281;47.658;9.166;2024-02-15T08:15:34;17.87;;;7.07;;
6495;SDS011;3281;47.658;9.166;2024-02-15T08:18:00;13.63;;;7.73;;
6495;SDS011;3281;47.658;9.166;2024-02-15T08:20:30;11.50;;;7.93;;
6495;SDS011;3281;47.658;9.166;2024-02-15T08:22:58;21.27;;;7.13;;
6495;SDS011;3281;47.658;9.166;2024-02-15T08:25:25;13.33;;;6.87;;
6495;SDS011;3281;47.658;9.166;2024-02-15T08:27:53;17.33;;;6.63;;
6495;SDS011;3281;47.658;9.166;2024-02-15T08:30:20;12.53;;;7.07;;
6495;SDS011;3281;47.658;9.166;2024-02-15T08:32:47;8.83;;;6.13;;
6495;SDS011;3281;47.658;9.166;2024-02-15T08:35:14;12.67;;;6.23;;
6495;SDS011;3281;47.658;9.166;2024-02-15T08:37:41;11.63;;;7.07;;
6495;SDS011;3281;47.658;9.166;2024-02-15T08:40:12;12.83;;;7.87;;
6495;SDS011;3281;47.658;9.166;2024-02-15T08:42:40;13.00;;;6.73;;
6495;SDS011;3281;47.658;9.166;2024-02-15T08:45:09;12.70;;;7.53;;
6495;SDS011;3281;47.658;9.166;2024-02-15T08:47:37;12.30;;;6.37;;
6495;SDS011;3281;47.658;9.166;2024-02-15T08:50:05;9.57;;;6.30;;
6495;SDS011;3281;47.658;9.166;2024-02-15T08:52:34;18.20;;;6.73;;
6495;SDS011;3281;47.658;9.166;2024-02-15T08:55:02;10.77;;;5.60;;
6495;SDS011;3281;47.658;9.166;2024-02-15T08:57:31;8.70;;;5.50;;
6495;SDS011;3281;47.658;9.166;2024-02-15T08:59:58;9.70;;;5.60;;
6495;SDS011;3281;47.658;9.166;2024-02-15T09:02:26;9.47;;;4.87;;
6495;SDS011;3281;47.658;9.166;2024-02-15T09:04:53;10.23;;;4.87;;
6495;SDS011;3281;47.658;9.166;2024-02-15T09:07:19;11.87;;;5.60;;
6495;SDS011;3281;47.658;9.166;2024-02-15T09:09:47;12.27;;;5.43;;
6495;SDS011;3281;47.658;9.166;2024-02-15T09:12:14;10.33;;;5.00;;
6495;SDS011;3281;47.658;9.166;2024-02-15T09:14:40;7.33;;;4.20;;
6495;SDS011;3281;47.658;9.166;2024-02-15T09:17:07;10.27;;;5.30;;
6495;SDS011;3281;47.658;9.166;2024-02-15T09:19:36;5.87;;;4.50;;
6495;SDS011;3281;47.658;9.166;2024-02-15T09:22:02;8.00;;;3.73;;
6495;SDS011;3281;47.658;9.166;2024-02-15T09:24:31;8.13;;;4.00;;
6495;SDS011;3281;47.658;9.166;2024-02-15T09:26:58;5.90;;;3.53;;
6495;SDS011;3281;47.658;9.166;2024-02-15T09:29:26;5.87;;;3.70;;
6495;SDS011;3281;47.658;9.166;2024-02-15T09:31:54;8.60;;;4.10;;
6495;SDS011;3281;47.658;9.166;2024-02-15T09:34:21;3.92;;;2.92;;
6495;SDS011;3281;47.658;9.166;2024-02-15T09:36:49;5.15;;;2.88;;
6495;SDS011;3281;47.658;9.166;2024-02-15T09:39:16;5.53;;;3.47;;
6495;SDS011;3281;47.658;9.166;2024-02-15T09:41:43;6.10;;;3.13;;
6495;SDS011;3281;47.658;9.166;2024-02-15T09:44:10;10.57;;;3.33;;
6495;SDS011;3281;47.658;9.166;2024-02-15T09:46:42;5.30;;;3.05;;
6495;SDS011;3281;47.658;9.166;2024-02-15T09:49:11;7.07;;;3.58;;
6495;SDS011;3281;47.658;9.166;2024-02-15T09:51:38;6.60;;;3.25;;
6495;SDS011;3281;47.658;9.166;2024-02-15T09:54:07;6.68;;;3.67;;
6495;SDS011;3281;47.658;9.166;2024-02-15T09:56:35;5.68;;;3.40;;
6495;SDS011;3281;47.658;9.166;2024-02-15T09:59:02;6.72;;;3.63;;
6495;SDS011;3281;47.658;9.166;2024-02-15T10:01:31;4.10;;;3.70;;
6495;SDS011;3281;47.658;9.166;2024-02-15T10:04:00;5.75;;;3.70;;
6495;SDS011;3281;47.658;9.166;2024-02-15T10:06:31;7.45;;;3.88;;
6495;SDS011;3281;47.658;9.166;2024-02-15T10:11:54;7.35;;;2.92;;
6495;SDS011;3281;47.658;9.166;2024-02-15T10:14:22;5.10;;;3.33;;
6495;SDS011;3281;47.658;9.166;2024-02-15T10:16:50;7.43;;;2.97;;
6495;SDS011;3281;47.658;9.166;2024-02-15T10:19:18;5.22;;;2.83;;
6495;SDS011;3281;47.658;9.166;2024-02-15T10:21:50;5.32;;;2.70;;
6495;SDS011;3281;47.658;9.166;2024-02-15T10:24:20;8.38;;;3.20;;
6495;SDS011;3281;47.658;9.166;2024-02-15T10:26:49;7.22;;;3.78;;
6495;SDS011;3281;47.658;9.166;2024-02-15T10:29:16;4.10;;;2.80;;
6495;SDS011;3281;47.658;9.166;2024-02-15T10:31:52;5.18;;;3.38;;
6495;SDS011;3281;47.658;9.166;2024-02-15T10:34:19;6.95;;;3.85;;
6495;SDS011;3281;47.658;9.166;2024-02-15T10:36:46;4.75;;;3.60;;
6495;SDS011;3281;47.658;9.166;2024-02-15T10:39:14;7.05;;;4.07;;
6495;SDS011;3281;47.658;9.166;2024-02-15T10:41:44;6.13;;;3.85;;
6495;SDS011;3281;47.658;9.166;2024-02-15T10:44:15;5.63;;;3.85;;
6495;SDS011;3281;47.658;9.166;2024-02-15T10:46:44;3.95;;;3.20;;
6495;SDS011;3281;47.658;9.166;2024-02-15T10:49:15;6.70;;;3.63;;
6495;SDS011;3281;47.658;9.166;2024-02-15T10:51:48;6.65;;;3.80;;
6495;SDS011;3281;47.658;9.166;2024-02-15T10:54:19;6.70;;;3.47;;
6495;SDS011;3281;47.658;9.166;2024-02-15T10:56:59;6.10;;;3.67;;
6495;SDS011;3281;47.658;9.166;2024-02-15T10:59:34;6.35;;;4.18;;
6495;SDS011;3281;47.658;9.166;2024-02-15T11:02:16;10.38;;;3.83;;
6495;SDS011;3281;47.658;9.166;2024-02-15T11:04:52;8.50;;;3.95;;
6495;SDS011;3281;47.658;9.166;2024-02-15T11:07:23;11.20;;;3.97;;
6495;SDS011;3281;47.658;9.166;2024-02-15T11:09:51;21.13;;;5.05;;
6495;SDS011;3281;47.658;9.166;2024-02-15T11:12:18;11.90;;;4.00;;
6495;SDS011;3281;47.658;9.166;2024-02-15T11:14:47;19.08;;;4.57;;
6495;SDS011;3281;47.658;9.166;2024-02-15T11:17:44;9.73;;;4.50;;
6495;SDS011;3281;47.658;9.166;2024-02-15T11:23:27;8.65;;;3.83;;
6495;SDS011;3281;47.658;9.166;2024-02-15T11:25:55;6.75;;;3.80;;
6495;SDS011;3281;47.658;9.166;2024-02-15T11:28:37;9.88;;;3.90;;
6495;SDS011;3281;47.658;9.166;2024-02-15T11:31:10;8.27;;;3.50;;
6495;SDS011;3281;47.658;9.166;2024-02-15T11:33:58;4.70;;;3.47;;
6495;SDS011;3281;47.658;9.166;2024-02-15T11:36:30;5.10;;;3.83;;
6495;SDS011;3281;47.658;9.166;2024-02-15T11:38:57;8.07;;;3.72;;
6495;SDS011;3281;47.658;9.166;2024-02-15T11:41:24;7.55;;;4.07;;
6495;SDS011;3281;47.658;9.166;2024-02-15T11:43:51;8.52;;;4.05;;
6495;SDS011;3281;47.658;9.166;2024-02-15T11:46:24;8.07;;;3.72;;
6495;SDS011;3281;47.658;9.166;2024-02-15T11:48:55;7.20;;;3.60;;
6495;SDS011;3281;47.658;9.166;2024-02-15T11:51:24;7.35;;;3.65;;
6495;SDS011;3281;47.658;9.166;2024-02-15T11:54:01;6.95;;;3.83;;
6495;SDS011;3281;47.658;9.166;2024-02-15T11:56:31;6.65;;;3.75;;
6495;SDS011;3281;47.658;9.166;2024-02-15T11:59:02;9.13;;;4.18;;
6495;SDS011;3281;47.658;9.166;2024-02-15T12:01:32;7.07;;;3.58;;
6495;SDS011;3281;47.658;9.166;2024-02-15T12:04:18;4.10;;;3.38;;
6495;SDS011;3281;47.658;9.166;2024-02-15T12:07:02;9.77;;;3.90;;
6495;SDS011;3281;47.658;9.166;2024-02-15T12:09:47;5.50;;;4.00;;
6495;SDS011;3281;47.658;9.166;2024-02-15T12:12:31;4.85;;;3.47;;
6495;SDS011;3281;47.658;9.166;2024-02-15T12:15:15;4.43;;;3.30;;
6495;SDS011;3281;47.658;9.166;2024-02-15T12:18:14;7.00;;;3.28;;
6495;SDS011;3281;47.658;9.166;2024-02-15T12:20:58;6.32;;;3.10;;
6495;SDS011;3281;47.658;9.166;2024-02-15T12:23:25;8.35;;;3.30;;
6495;SDS011;3281;47.658;9.166;2024-02-15T12:25:52;8.73;;;3.50;;
6495;SDS011;3281;47.658;9.166;2024-02-15T12:28:19;7.25;;;3.22;;
6495;SDS011;3281;47.658;9.166;2024-02-15T12:30:46;5.78;;;3.10;;
6495;SDS011;3281;47.658;9.166;2024-02-15T12:33:21;7.60;;;3.40;;
6495;SDS011;3281;47.658;9.166;2024-02-15T12:35:49;5.22;;;3.22;;
6495;SDS011;3281;47.658;9.166;2024-02-15T12:38:16;5.32;;;3.90;;
6495;SDS011;3281;47.658;9.166;2024-02-15T12:40:43;6.53;;;3.25;;
6495;SDS011;3281;47.658;9.166;2024-02-15T12:43:12;5.53;;;3.78;;
6495;SDS011;3281;47.658;9.166;2024-02-15T12:45:39;8.25;;;3.50;;
6495;SDS011;3281;47.658;9.166;2024-02-15T12:48:07;6.10;;;3.38;;
6495;SDS011;3281;47.658;9.166;2024-02-15T12:50:35;5.85;;;3.60;;
6495;SDS011;3281;47.658;9.166;2024-02-15T12:53:02;5.80;;;3.60;;
6495;SDS011;3281;47.658;9.166;2024-02-15T12:55:31;7.38;;;3.50;;
6495;SDS011;3281;47.658;9.166;2024-02-15T12:57:59;5.47;;;3.33;;
6495;SDS011;3281;47.658;9.166;2024-02-15T13:00:29;4.25;;;3.03;;
6495;SDS011;3281;47.658;9.166;2024-02-15T13:02:58;5.10;;;3.35;;
6495;SDS011;3281;47.658;9.166;2024-02-15T13:05:28;6.88;;;3.55;;
6495;SDS011;3281;47.658;9.166;2024-02-15T13:07:57;4.20;;;2.60;;
6495;SDS011;3281;47.658;9.166;2024-02-15T13:10:24;4.85;;;3.20;;
6495;SDS011;3281;47.658;9.166;2024-02-15T13:12:51;9.20;;;2.90;;
6495;SDS011;3281;47.658;9.166;2024-02-15T13:15:20;5.07;;;3.17;;
6495;SDS011;3281;47.658;9.166;2024-02-15T13:17:52;5.82;;;3.10;;
6495;SDS011;3281;47.658;9.166;2024-02-15T13:20:20;10.77;;;3.08;;
6495;SDS011;3281;47.658;9.166;2024-02-15T13:22:58;6.22;;;2.90;;
6495;SDS011;3281;47.658;9.166;2024-02-15T13:25:27;6.57;;;2.97;;
6495;SDS011;3281;47.658;9.166;2024-02-15T13:27:54;8.00;;;3.60;;
6495;SDS011;3281;47.658;9.166;2024-02-15T13:30:21;5.10;;;3.03;;
6495;SDS011;3281;47.658;9.166;2024-02-15T13:32:52;8.68;;;3.85;;
6495;SDS011;3281;47.658;9.166;2024-02-15T13:35:20;8.40;;;3.95;;
6495;SDS011;3281;47.658;9.166;2024-02-15T13:37:48;8.63;;;3.83;;
6495;SDS011;3281;47.658;9.166;2024-02-15T13:40:20;9.95;;;3.53;;
6495;SDS011;3281;47.658;9.166;2024-02-15T13:42:49;5.80;;;2.90;;
6495;SDS011;3281;47.658;9.166;2024-02-15T13:45:18;5.82;;;2.60;;
6495;SDS011;3281;47.658;9.166;2024-02-15T13:47:47;4.25;;;2.60;;
6495;SDS011;3281;47.658;9.166;2024-02-15T13:50:15;5.30;;;2.67;;
6495;SDS011;3281;47.658;9.166;2024-02-15T13:52:42;8.02;;;2.72;;
6495;SDS011;3281;47.658;9.166;2024-02-15T13:55:10;5.13;;;2.90;;
6495;SDS011;3281;47.658;9.166;2024-02-15T13:57:39;5.05;;;2.50;;
6495;SDS011;3281;47.658;9.166;2024-02-15T14:00:07;6.18;;;2.85;;
6495;SDS011;3281;47.658;9.166;2024-02-15T14:02:39;4.35;;;2.40;;
6495;SDS011;3281;47.658;9.166;2024-02-15T14:05:08;6.00;;;3.70;;
6495;SDS011;3281;47.658;9.166;2024-02-15T14:07:36;4.13;;;2.50;;
6495;SDS011;3281;47.658;9.166;2024-02-15T14:10:04;9.40;;;2.42;;
6495;SDS011;3281;47.658;9.166;2024-02-15T14:12:32;5.15;;;2.33;;
6495;SDS011;3281;47.658;9.166;2024-02-15T14:15:00;7.07;;;2.00;;
6495;SDS011;3281;47.658;9.166;2024-02-15T14:17:27;5.13;;;1.60;;
6495;SDS011;3281;47.658;9.166;2024-02-15T14:19:54;7.60;;;2.28;;
6495;SDS011;3281;47.658;9.166;2024-02-15T14:22:22;4.05;;;2.45;;
6495;SDS011;3281;47.658;9.166;2024-02-15T14:24:53;6.30;;;3.08;;
6495;SDS011;3281;47.658;9.166;2024-02-15T14:27:20;3.80;;;2.50;;
6495;SDS011;3281;47.658;9.166;2024-02-15T14:29:47;3.75;;;2.38;;
6495;SDS011;3281;47.658;9.166;2024-02-15T14:32:29;6.78;;;2.03;;
6495;SDS011;3281;47.658;9.166;2024-02-15T14:35:13;5.20;;;2.42;;
6495;SDS011;3281;47.658;9.166;2024-02-15T14:37:41;3.75;;;2.22;;
6495;SDS011;3281;47.658;9.166;2024-02-15T14:40:09;3.47;;;2.15;;
6495;SDS011;3281;47.658;9.166;2024-02-15T14:42:39;6.30;;;2.10;;
6495;SDS011;3281;47.658;9.166;2024-02-15T14:45:07;3.47;;;2.38;;
6495;SDS011;3281;47.658;9.166;2024-02-15T14:47:35;3.95;;;2.20;;
6495;SDS011;3281;47.658;9.166;2024-02-15T14:50:02;3.72;;;2.10;;
6495;SDS011;3281;47.658;9.166;2024-02-15T14:52:33;5.97;;;2.47;;
6495;SDS011;3281;47.658;9.166;2024-02-15T14:55:00;6.70;;;2.50;;
6495;SDS011;3281;47.658;9.166;2024-02-15T14:57:30;5.25;;;2.47;;
6495;SDS011;3281;47.658;9.166;2024-02-15T14:59:57;4.63;;;2.42;;
6495;SDS011;3281;47.658;9.166;2024-02-15T15:02:23;3.70;;;2.50;;
6495;SDS011;3281;47.658;9.166;2024-02-15T15:04:51;2.75;;;2.22;;
6495;SDS011;3281;47.658;9.166;2024-02-15T15:07:44;8.50;;;4.30;;
6495;SDS011;3281;47.658;9.166;2024-02-15T15:10:28;13.70;;;3.30;;
6495;SDS011;3281;47.658;9.166;2024-02-15T15:13:12;5.18;;;2.35;;
6495;SDS011;3281;47.658;9.166;2024-02-15T15:15:39;6.30;;;2.33;;
6495;SDS011;3281;47.658;9.166;2024-02-15T15:18:06;4.82;;;2.30;;
6495;SDS011;3281;47.658;9.166;2024-02-15T15:20:35;3.67;;;2.03;;
6495;SDS011;3281;47.658;9.166;2024-02-15T15:23:02;4.03;;;2.55;;
6495;SDS011;3281;47.658;9.166;2024-02-15T15:25:31;4.53;;;2.00;;
6495;SDS011;3281;47.658;9.166;2024-02-15T15:27:58;5.95;;;3.00;;
6495;SDS011;3281;47.658;9.166;2024-02-15T15:30:24;6.93;;;3.15;;